Time;durP1;ratioP1;P1;durP2;ratioP2;P2;SDS_P1;SDS_P2;PMS_P1;PMS_P2;Temp;Humidity;BMP_temperature;BMP_pressure;BME280_temperature;BME280_humidity;BME280_pressure;Samples;Min_cycle;Max_cycle;Signal;HPM_P1;HPM_P2
2021/01/14 00:00:34;;;;;;;18.40;13.03;;;3.10;99.90;;;;;;5070914;28;20405;-62
2021/01/14 00:03:00;;;;;;;21.13;14.47;;;3.20;99.90;;;;;;5072673;28;20705;-62
2021/01/14 00:05:26;;;;;;;19.27;13.90;;;3.10;99.90;;;;;;5074803;28;20408;-62
2021/01/14 00:07:53;;;;;;;15.70;12.80;;;3.10;99.90;;;;;;5074097;28;20398;-62
2021/01/14 00:10:19;;;;;;;20.43;13.70;;;3.20;99.90;;;;;;5074670;28;20481;-62
2021/01/14 00:12:47;;;;;;;19.50;11.47;;;3.10;99.90;;;;;;5074282;28;20444;-62
2021/01/14 00:15:14;;;;;;;19.27;13.53;;;3.10;99.90;;;;;;5074440;28;20398;-62
2021/01/14 00:17:40;;;;;;;22.30;13.67;;;3.10;99.90;;;;;;5073864;28;20425;-62
2021/01/14 00:20:09;;;;;;;15.70;11.67;;;3.00;99.90;;;;;;5074289;28;20401;-62
2021/01/14 00:22:35;;;;;;;17.83;13.80;;;3.00;99.90;;;;;;5074215;28;20409;-63
2021/01/14 00:25:01;;;;;;;15.80;12.37;;;3.10;99.90;;;;;;5074297;28;20406;-62
2021/01/14 00:27:26;;;;;;;19.30;14.13;;;3.00;99.90;;;;;;5073687;28;20433;-62
2021/01/14 00:29:52;;;;;;;17.03;13.07;;;3.10;99.90;;;;;;5074125;28;20178;-62
2021/01/14 00:32:17;;;;;;;13.97;11.37;;;3.10;99.90;;;;;;5073093;28;20203;-62
2021/01/14 00:34:43;;;;;;;15.30;12.40;;;3.20;99.90;;;;;;5074117;28;20170;-62
2021/01/14 00:40:11;;;;;;;24.33;14.37;;;3.20;99.90;;;;;;5051543;28;20555;-62
2021/01/14 00:42:36;;;;;;;19.03;13.30;;;3.20;99.90;;;;;;5069240;28;20425;-62
2021/01/14 00:45:02;;;;;;;23.10;15.17;;;3.20;99.90;;;;;;5074076;28;20769;-62
2021/01/14 00:47:34;;;;;;;15.73;12.17;;;3.20;99.90;;;;;;5073437;28;20603;-63
2021/01/14 00:50:00;;;;;;;22.63;13.80;;;3.20;99.90;;;;;;5073776;28;20449;-63
2021/01/14 00:52:26;;;;;;;17.77;12.50;;;3.20;99.90;;;;;;5073409;28;20448;-62
2021/01/14 00:54:51;;;;;;;15.70;11.63;;;3.20;99.90;;;;;;5072446;28;20636;-62
2021/01/14 00:57:17;;;;;;;15.53;11.47;;;3.20;99.90;;;;;;5073081;28;20198;-62
2021/01/14 00:59:42;;;;;;;22.93;12.30;;;3.20;99.90;;;;;;5073526;28;20174;-62
2021/01/14 01:02:08;;;;;;;14.17;11.90;;;3.20;99.90;;;;;;5073594;28;20178;-62
2021/01/14 01:04:33;;;;;;;14.20;11.60;;;3.10;99.90;;;;;;5072136;28;20182;-62
2021/01/14 01:06:59;;;;;;;15.53;11.90;;;3.20;99.90;;;;;;5073189;28;20555;-62
2021/01/14 01:09:24;;;;;;;13.83;12.20;;;3.20;99.90;;;;;;5073242;28;20539;-63
2021/01/14 01:11:50;;;;;;;20.43;13.43;;;3.20;99.90;;;;;;5073354;28;20226;-62
2021/01/14 01:14:15;;;;;;;15.33;12.20;;;3.30;99.90;;;;;;5072040;28;20160;-64
2021/01/14 01:16:41;;;;;;;15.23;12.67;;;3.20;99.90;;;;;;5071725;28;20194;-62
2021/01/14 01:19:07;;;;;;;15.80;13.37;;;3.20;99.90;;;;;;5073089;28;20171;-63
2021/01/14 01:21:32;;;;;;;14.73;10.43;;;3.20;99.90;;;;;;5073261;28;20175;-63
2021/01/14 01:23:58;;;;;;;11.80;10.20;;;3.30;99.90;;;;;;5072943;28;20203;-63
2021/01/14 01:26:23;;;;;;;14.07;12.70;;;3.20;99.90;;;;;;5072960;28;20195;-62
2021/01/14 01:28:49;;;;;;;12.13;10.93;;;3.30;99.90;;;;;;5072930;28;20175;-60
2021/01/14 01:31:15;;;;;;;12.30;11.00;;;3.20;99.90;;;;;;5072983;28;20181;-63
2021/01/14 01:33:42;;;;;;;12.60;11.20;;;3.20;99.90;;;;;;5072787;28;20195;-63
2021/01/14 01:36:10;;;;;;;13.60;10.67;;;3.20;99.90;;;;;;5072809;28;20429;-62
2021/01/14 01:38:36;;;;;;;12.90;10.47;;;3.20;99.90;;;;;;5072332;28;20413;-60
2021/01/14 01:41:02;;;;;;;14.77;12.50;;;3.20;99.90;;;;;;5072862;28;20397;-61
2021/01/14 01:43:28;;;;;;;13.57;10.23;;;3.20;99.90;;;;;;5072575;28;20167;-62
2021/01/14 01:45:54;;;;;;;14.50;12.90;;;3.20;99.90;;;;;;5072660;28;20433;-62
2021/01/14 01:48:21;;;;;;;12.20;10.90;;;3.20;99.90;;;;;;5072123;28;20517;-62
2021/01/14 01:50:49;;;;;;;12.97;11.77;;;3.20;99.90;;;;;;5072505;28;20906;-62
2021/01/14 01:53:16;;;;;;;11.60;10.17;;;3.10;99.90;;;;;;5072518;28;20882;-63
2021/01/14 01:55:45;;;;;;;11.97;10.80;;;3.10;99.90;;;;;;5072341;28;20941;-62
2021/01/14 01:58:12;;;;;;;15.10;11.90;;;3.10;99.90;;;;;;5072002;28;20433;-63
2021/01/14 02:00:38;;;;;;;12.57;11.27;;;3.10;99.90;;;;;;5072408;28;20409;-62
2021/01/14 02:03:04;;;;;;;13.17;11.23;;;3.10;99.90;;;;;;5072331;28;20412;-62
2021/01/14 02:05:31;;;;;;;13.97;12.57;;;3.10;99.90;;;;;;5072020;28;20409;-61
2021/01/14 02:08:20;;;;;;;12.13;10.93;;;3.10;99.90;;;;;;5071928;28;20413;-63
2021/01/14 02:11:09;;;;;;;14.73;11.20;;;3.10;99.90;;;;;;5072131;28;20428;-62
2021/01/14 02:14:02;;;;;;;11.40;9.80;;;3.10;99.90;;;;;;5072174;28;20913;-62
2021/01/14 02:16:28;;;;;;;13.70;11.50;;;3.10;99.90;;;;;;5072076;28;20429;-63
2021/01/14 02:18:55;;;;;;;11.33;10.23;;;3.10;99.90;;;;;;5071909;28;20470;-62
2021/01/14 02:21:24;;;;;;;10.23;9.23;;;3.00;99.90;;;;;;5072068;28;20413;-62
2021/01/14 02:24:11;;;;;;;11.90;10.90;;;3.10;99.90;;;;;;5072084;28;20409;-63
2021/01/14 02:26:38;;;;;;;8.90;7.40;;;3.00;99.90;;;;;;5071332;28;20446;-62
2021/01/14 02:29:04;;;;;;;7.00;6.30;;;2.90;99.90;;;;;;5071908;28;20418;-63
2021/01/14 02:31:30;;;;;;;9.90;7.00;;;3.10;99.90;;;;;;5071777;28;20577;-61
2021/01/14 02:33:56;;;;;;;7.10;6.40;;;3.00;99.90;;;;;;5071995;28;20497;-60
2021/01/14 02:36:23;;;;;;;7.87;7.17;;;2.90;99.90;;;;;;5071739;28;20212;-60
2021/01/14 02:38:49;;;;;;;11.20;7.80;;;2.90;99.90;;;;;;5071520;28;20448;-59
2021/01/14 02:41:15;;;;;;;8.23;6.93;;;2.80;99.90;;;;;;5072441;28;20402;-63
2021/01/14 02:43:42;;;;;;;8.73;8.00;;;2.80;99.90;;;;;;5071778;28;20933;-63
2021/01/14 02:46:08;;;;;;;7.67;6.87;;;2.80;99.90;;;;;;5071632;28;20190;-62
2021/01/14 02:48:46;;;;;;;6.57;6.00;;;2.80;99.90;;;;;;5071427;28;20416;-63
2021/01/14 02:51:27;;;;;;;5.83;5.33;;;2.80;99.90;;;;;;5071549;28;21006;-63
2021/01/14 02:53:54;;;;;;;6.00;5.40;;;2.70;99.90;;;;;;5071700;28;20452;-63
2021/01/14 02:56:23;;;;;;;5.37;4.93;;;2.70;99.90;;;;;;5071365;28;20421;-63
2021/01/14 02:58:49;;;;;;;7.03;6.43;;;2.70;99.90;;;;;;5071420;28;20402;-63
2021/01/14 03:01:14;;;;;;;6.17;5.60;;;2.60;99.90;;;;;;5071489;28;20923;-62
2021/01/14 03:03:40;;;;;;;6.00;5.50;;;2.70;99.90;;;;;;5071667;28;20182;-63
2021/01/14 03:06:05;;;;;;;6.10;5.60;;;2.60;99.90;;;;;;5071872;28;20230;-63
2021/01/14 03:08:31;;;;;;;6.80;5.20;;;2.70;99.90;;;;;;5071308;28;20202;-63
2021/01/14 03:10:56;;;;;;;5.50;5.10;;;2.60;99.90;;;;;;5071455;28;20246;-63
2021/01/14 03:13:22;;;;;;;5.77;5.00;;;2.60;99.90;;;;;;5070348;28;20295;-62
2021/01/14 03:15:47;;;;;;;6.37;4.50;;;2.60;99.90;;;;;;5070901;28;20681;-63
2021/01/14 03:18:13;;;;;;;5.30;4.80;;;2.50;99.90;;;;;;5071081;28;20171;-62
2021/01/14 03:20:39;;;;;;;5.90;5.20;;;2.50;99.90;;;;;;5071422;28;20659;-63
2021/01/14 03:23:04;;;;;;;7.07;6.37;;;2.50;99.90;;;;;;5071524;28;20168;-61
2021/01/14 03:25:30;;;;;;;7.10;6.50;;;2.50;99.90;;;;;;5071215;28;20969;-63
2021/01/14 03:27:55;;;;;;;8.47;7.77;;;2.50;99.90;;;;;;5071048;28;20658;-63
2021/01/14 03:30:21;;;;;;;9.30;8.40;;;2.50;99.90;;;;;;5071447;28;20214;-63
2021/01/14 03:32:47;;;;;;;10.40;9.43;;;2.50;99.90;;;;;;5071123;28;20191;-63
2021/01/14 03:35:12;;;;;;;8.53;7.83;;;2.50;99.90;;;;;;5071298;28;20168;-63
2021/01/14 03:37:40;;;;;;;8.93;7.93;;;2.40;99.90;;;;;;5072249;28;20198;-63
2021/01/14 03:40:06;;;;;;;9.70;7.33;;;2.40;99.90;;;;;;5075028;28;20209;-63
2021/01/14 03:42:32;;;;;;;7.90;7.10;;;2.40;99.90;;;;;;5074942;28;20448;-63
2021/01/14 03:44:57;;;;;;;7.50;6.80;;;2.40;99.90;;;;;;5075024;28;20801;-62
2021/01/14 03:47:24;;;;;;;7.17;6.30;;;2.40;99.90;;;;;;5073147;28;20199;-63
2021/01/14 03:49:50;;;;;;;4.17;3.87;;;2.40;99.90;;;;;;5074850;28;20174;-63
2021/01/14 03:52:16;;;;;;;4.00;3.73;;;2.40;99.90;;;;;;5074658;28;20457;-63
2021/01/14 03:54:45;;;;;;;6.17;3.77;;;2.40;99.90;;;;;;5074827;28;20924;-63
2021/01/14 03:57:11;;;;;;;6.03;4.03;;;2.30;99.90;;;;;;5074283;28;20294;-62
2021/01/14 03:59:36;;;;;;;3.73;3.10;;;2.20;99.90;;;;;;5074722;28;20433;-63
2021/01/14 04:02:06;;;;;;;11.70;4.90;;;2.10;99.90;;;;;;5074446;28;20195;-63
2021/01/14 04:04:33;;;;;;;6.03;3.10;;;2.00;99.90;;;;;;5074794;28;20620;-63
2021/01/14 04:06:59;;;;;;;4.47;2.90;;;2.00;99.90;;;;;;5074388;28;20421;-63
2021/01/14 04:09:25;;;;;;;6.80;4.03;;;2.00;99.90;;;;;;5074479;28;20412;-63
2021/01/14 04:11:50;;;;;;;5.73;3.57;;;2.00;99.90;;;;;;5074304;28;20648;-62
2021/01/14 04:14:16;;;;;;;7.73;5.57;;;2.00;99.90;;;;;;5074509;28;20167;-63
2021/01/14 04:16:41;;;;;;;4.23;2.37;;;2.00;99.90;;;;;;5073879;28;20187;-63
2021/01/14 04:19:07;;;;;;;4.43;2.47;;;2.00;99.90;;;;;;5074350;28;20214;-62
2021/01/14 04:21:32;;;;;;;8.77;3.67;;;2.00;99.90;;;;;;5074312;28;20556;-62
2021/01/14 04:23:58;;;;;;;8.17;4.27;;;2.00;99.90;;;;;;5074259;28;20629;-63
2021/01/14 04:26:23;;;;;;;22.57;9.90;;;2.00;99.90;;;;;;5074279;28;20664;-63
2021/01/14 04:28:49;;;;;;;12.77;4.90;;;2.00;99.90;;;;;;5073791;28;20692;-62
2021/01/14 04:31:14;;;;;;;4.10;3.23;;;2.00;99.90;;;;;;5074138;28;20175;-63
2021/01/14 04:33:40;;;;;;;3.00;1.50;;;1.90;99.90;;;;;;5074006;28;20191;-63
2021/01/14 04:36:06;;;;;;;3.97;2.63;;;1.90;99.90;;;;;;5074066;28;20313;-63
2021/01/14 04:38:31;;;;;;;4.20;1.67;;;1.90;99.90;;;;;;5073596;28;20159;-63
2021/01/14 04:40:59;;;;;;;9.10;3.13;;;1.90;99.90;;;;;;5074025;28;20167;-63
2021/01/14 04:43:26;;;;;;;3.90;3.10;;;1.90;99.90;;;;;;5073897;28;20167;-63
2021/01/14 04:46:04;;;;;;;3.23;1.50;;;2.00;99.90;;;;;;5073725;28;20457;-63
2021/01/14 04:48:33;;;;;;;2.40;1.70;;;1.90;99.90;;;;;;5073185;28;20497;-63
2021/01/14 04:51:08;;;;;;;5.40;1.70;;;1.80;99.90;;;;;;5073923;28;20766;-63
2021/01/14 04:53:40;;;;;;;1.90;1.77;;;1.90;99.90;;;;;;5073737;28;20887;-63
2021/01/14 04:56:08;;;;;;;3.73;2.33;;;1.90;99.90;;;;;;5073608;28;20461;-62
2021/01/14 04:58:35;;;;;;;2.60;1.87;;;1.90;99.90;;;;;;5073240;28;20393;-62
2021/01/14 05:01:05;;;;;;;3.50;1.50;;;1.90;99.90;;;;;;5073711;28;20437;-63
2021/01/14 05:03:34;;;;;;;2.07;1.50;;;1.90;99.90;;;;;;5073796;28;20476;-63
2021/01/14 05:06:01;;;;;;;1.77;1.67;;;1.90;99.90;;;;;;5073482;28;20516;-63
2021/01/14 05:08:31;;;;;;;5.00;2.00;;;1.90;99.90;;;;;;5073033;28;20405;-63
2021/01/14 05:10:58;;;;;;;2.73;1.70;;;1.90;99.90;;;;;;5073422;28;20781;-63
2021/01/14 05:13:27;;;;;;;5.40;1.97;;;1.90;99.90;;;;;;5073196;28;20453;-63
2021/01/14 05:15:53;;;;;;;1.63;1.50;;;1.90;99.90;;;;;;5073373;28;20413;-63
2021/01/14 05:18:18;;;;;;;4.13;3.13;;;1.90;99.90;;;;;;5072869;28;20397;-63
2021/01/14 05:20:44;;;;;;;2.47;1.77;;;2.00;99.90;;;;;;5073277;28;20171;-63
2021/01/14 05:23:11;;;;;;;2.97;2.00;;;2.00;99.90;;;;;;5073021;28;20516;-63
2021/01/14 05:25:44;;;;;;;7.60;1.70;;;1.90;99.90;;;;;;5073045;28;20172;-62
2021/01/14 05:28:12;;;;;;;2.80;2.37;;;1.90;99.90;;;;;;5072653;28;20796;-63
2021/01/14 05:30:42;;;;;;;2.33;1.87;;;1.90;99.90;;;;;;5073219;28;20412;-63
2021/01/14 05:33:15;;;;;;;2.70;1.87;;;1.90;99.90;;;;;;5072804;28;20991;-61
2021/01/14 05:35:48;;;;;;;4.33;1.70;;;1.80;99.90;;;;;;5072763;28;20485;-61
2021/01/14 05:38:28;;;;;;;1.83;1.73;;;1.70;99.90;;;;;;5072402;28;20777;-62
2021/01/14 05:41:19;;;;;;;6.67;3.20;;;1.70;99.90;;;;;;5072879;28;20936;-63
2021/01/14 05:43:55;;;;;;;5.20;3.23;;;1.70;99.90;;;;;;5073092;28;20795;-63
2021/01/14 05:46:26;;;;;;;6.03;2.90;;;1.70;99.90;;;;;;5072617;28;20425;-62
2021/01/14 05:48:54;;;;;;;5.60;2.73;;;1.70;99.90;;;;;;5072290;28;20402;-62
2021/01/14 05:51:23;;;;;;;5.30;2.80;;;1.70;99.90;;;;;;5072633;28;20418;-62
2021/01/14 05:53:57;;;;;;;5.00;3.00;;;1.60;99.90;;;;;;5072352;28;20456;-63
2021/01/14 05:56:50;;;;;;;5.23;2.20;;;1.60;99.90;;;;;;5072397;28;20878;-62
2021/01/14 05:59:17;;;;;;;1.73;1.20;;;1.70;99.90;;;;;;5072274;28;20401;-62
2021/01/14 06:01:57;;;;;;;4.77;2.23;;;1.60;99.90;;;;;;5071944;28;20405;-62
2021/01/14 06:04:27;;;;;;;2.47;1.83;;;1.60;99.90;;;;;;5072356;28;20416;-63
2021/01/14 06:06:54;;;;;;;4.10;2.90;;;1.60;99.90;;;;;;5072049;28;20417;-63
2021/01/14 06:09:22;;;;;;;4.70;2.03;;;1.50;99.90;;;;;;5072045;28;20834;-62
2021/01/14 06:11:49;;;;;;;2.73;1.70;;;1.50;99.90;;;;;;5072180;28;20914;-62
2021/01/14 06:14:29;;;;;;;3.03;2.30;;;1.50;99.90;;;;;;5072061;28;20476;-62
2021/01/14 06:16:56;;;;;;;1.40;1.40;;;1.50;99.90;;;;;;5071755;28;20417;-62
2021/01/14 06:19:24;;;;;;;2.70;1.67;;;1.60;99.90;;;;;;5071981;28;20398;-63
2021/01/14 06:21:55;;;;;;;1.87;1.60;;;1.60;99.90;;;;;;5072018;28;20397;-62
2021/01/14 06:24:25;;;;;;;4.87;1.87;;;1.60;99.90;;;;;;5067631;28;20434;-62
2021/01/14 06:27:06;;;;;;;4.00;2.10;;;1.60;99.90;;;;;;5051400;28;20422;-62
2021/01/14 06:29:37;;;;;;;2.90;2.67;;;1.60;99.90;;;;;;5051371;28;20409;-62
2021/01/14 06:32:07;;;;;;;4.10;2.73;;;1.60;99.90;;;;;;5051757;28;20450;-62
2021/01/14 06:34:35;;;;;;;4.70;3.20;;;1.50;99.90;;;;;;5051777;28;20402;-63
2021/01/14 06:37:11;;;;;;;6.93;2.70;;;1.50;99.90;;;;;;5051372;28;20452;-62
2021/01/14 06:39:43;;;;;;;4.77;2.20;;;1.60;99.90;;;;;;5051801;28;20813;-63
2021/01/14 06:42:34;;;;;;;4.40;2.40;;;1.60;99.90;;;;;;5051670;28;20406;-62
2021/01/14 06:45:08;;;;;;;5.90;2.03;;;1.60;99.90;;;;;;5051611;28;20402;-62
2021/01/14 06:47:40;;;;;;;5.03;2.43;;;1.50;99.90;;;;;;5051546;28;20413;-62
2021/01/14 06:50:12;;;;;;;6.00;3.00;;;1.60;99.90;;;;;;5051690;28;20486;-62
2021/01/14 06:52:42;;;;;;;3.47;2.53;;;1.50;99.90;;;;;;5050844;28;20445;-62
2021/01/14 06:55:15;;;;;;;4.90;4.40;;;1.50;99.90;;;;;;5051794;28;20410;-62
2021/01/14 06:57:57;;;;;;;6.83;2.50;;;1.50;99.90;;;;;;5051147;28;20465;-61
2021/01/14 07:00:24;;;;;;;6.30;3.23;;;1.50;99.90;;;;;;5051760;28;20421;-62
2021/01/14 07:02:54;;;;;;;4.33;2.47;;;1.50;99.90;;;;;;5051600;28;20402;-62
2021/01/14 07:05:33;;;;;;;4.13;1.90;;;1.50;99.90;;;;;;5051574;28;20407;-62
2021/01/14 07:08:40;;;;;;;4.27;2.20;;;1.50;99.90;;;;;;5051136;28;20497;-61
2021/01/14 07:11:09;;;;;;;7.60;2.90;;;1.60;99.90;;;;;;5052081;28;20413;-61
2021/01/14 07:13:38;;;;;;;3.80;1.50;;;1.60;99.90;;;;;;5055491;28;20446;-61
2021/01/14 07:16:04;;;;;;;2.50;1.63;;;1.60;99.90;;;;;;5055496;28;20422;-61
2021/01/14 07:18:32;;;;;;;1.63;1.53;;;1.60;99.90;;;;;;5055069;28;20489;-62
2021/01/14 07:21:16;;;;;;;2.27;2.03;;;1.60;99.90;;;;;;5055556;28;20402;-61
2021/01/14 07:23:53;;;;;;;4.00;1.80;;;1.60;99.90;;;;;;5055338;28;20929;-61
2021/01/14 07:26:22;;;;;;;2.07;1.57;;;1.50;99.90;;;;;;5055388;28;20832;-62
2021/01/14 07:28:49;;;;;;;5.90;1.70;;;1.50;99.90;;;;;;5054944;28;20617;-61
2021/01/14 07:31:19;;;;;;;3.70;1.53;;;1.60;99.90;;;;;;5055452;28;20452;-61
2021/01/14 07:33:45;;;;;;;2.17;1.40;;;1.50;99.90;;;;;;5055154;28;20442;-62
2021/01/14 07:36:41;;;;;;;2.93;1.63;;;1.50;99.90;;;;;;5055157;28;21014;-62
2021/01/14 07:39:07;;;;;;;3.67;2.00;;;1.50;99.90;;;;;;5054509;28;20460;-61
2021/01/14 07:41:55;;;;;;;2.30;1.70;;;1.50;99.90;;;;;;5055238;28;20402;-62
2021/01/14 07:44:21;;;;;;;5.00;2.17;;;1.50;99.90;;;;;;5055032;28;20211;-61
2021/01/14 07:46:50;;;;;;;6.40;2.43;;;1.50;99.90;;;;;;5054787;28;20833;-60
2021/01/14 07:49:28;;;;;;;2.63;1.90;;;1.50;99.90;;;;;;5054750;28;20172;-61
2021/01/14 07:51:54;;;;;;;2.60;1.93;;;1.50;99.90;;;;;;5054933;28;20402;-61
2021/01/14 07:54:20;;;;;;;4.97;2.20;;;1.50;99.90;;;;;;5054839;28;20406;-62
2021/01/14 07:56:51;;;;;;;3.70;1.70;;;1.40;99.90;;;;;;5054476;28;20438;-61
2021/01/14 07:59:30;;;;;;;3.70;2.97;;;1.40;99.90;;;;;;5054626;28;20434;-62
2021/01/14 08:02:07;;;;;;;6.00;4.30;;;1.40;99.90;;;;;;5054884;28;20544;-62
2021/01/14 08:04:44;;;;;;;7.90;4.20;;;1.50;99.90;;;;;;5053401;28;20421;-63
2021/01/14 08:07:24;;;;;;;4.30;2.80;;;1.40;99.90;;;;;;5054503;28;20947;-64
2021/01/14 08:09:52;;;;;;;2.50;2.30;;;1.50;99.90;;;;;;5054575;28;20432;-63
2021/01/14 08:12:19;;;;;;;5.63;2.77;;;1.60;99.90;;;;;;5054517;28;20453;-62
2021/01/14 08:14:45;;;;;;;5.13;2.97;;;1.60;99.90;;;;;;5054727;28;20410;-64
2021/01/14 08:17:21;;;;;;;2.93;2.30;;;1.60;99.90;;;;;;5055877;28;20770;-63
2021/01/14 08:19:47;;;;;;;8.20;3.13;;;1.60;99.90;;;;;;5054332;28;20171;-63
2021/01/14 08:22:13;;;;;;;1.70;1.60;;;1.60;99.90;;;;;;5054298;28;20410;-63
2021/01/14 08:24:49;;;;;;;6.20;2.30;;;1.60;99.90;;;;;;5053874;28;20402;-62
2021/01/14 08:27:26;;;;;;;5.30;2.20;;;1.60;99.90;;;;;;5053847;28;20430;-66
2021/01/14 08:30:16;;;;;;;6.63;2.47;;;1.60;99.90;;;;;;5054256;28;20429;-63
2021/01/14 08:32:45;;;;;;;2.50;1.93;;;1.60;99.90;;;;;;5052751;28;20454;-66
2021/01/14 08:35:16;;;;;;;6.87;2.70;;;1.50;99.90;;;;;;5054154;28;20420;-70
2021/01/14 08:37:54;;;;;;;3.00;2.53;;;1.60;99.90;;;;;;5053591;28;20497;-65
2021/01/14 08:40:24;;;;;;;5.30;4.10;;;1.60;99.90;;;;;;5054786;28;20394;-70
2021/01/14 08:43:11;;;;;;;9.10;8.30;;;1.60;99.90;;;;;;5054098;28;20493;-65
2021/01/14 08:45:47;;;;;;;4.10;2.90;;;1.60;99.90;;;;;;5054469;28;20414;-65
2021/01/14 08:48:29;;;;;;;4.13;3.10;;;1.70;99.90;;;;;;5055680;28;20437;-65
2021/01/14 08:50:54;;;;;;;4.43;3.80;;;1.70;99.90;;;;;;5055936;28;20437;-66
2021/01/14 08:53:29;;;;;;;2.47;2.27;;;1.70;99.90;;;;;;5054061;28;20458;-66
2021/01/14 08:56:15;;;;;;;8.17;3.63;;;1.80;99.90;;;;;;5054449;28;20180;-65
2021/01/14 08:58:45;;;;;;;5.23;2.47;;;1.80;99.90;;;;;;5054438;28;20398;-64
2021/01/14 09:01:17;;;;;;;4.77;2.70;;;1.90;99.90;;;;;;5054957;28;20944;-66
2021/01/14 09:03:44;;;;;;;4.33;1.97;;;2.00;99.90;;;;;;5053758;28;20405;-64
2021/01/14 09:06:10;;;;;;;2.63;2.43;;;2.00;99.90;;;;;;5053614;28;20426;-64
2021/01/14 09:08:35;;;;;;;5.20;2.90;;;2.00;99.90;;;;;;5053044;28;20425;-67
2021/01/14 09:11:01;;;;;;;6.00;3.03;;;2.10;99.90;;;;;;5054783;28;20175;-67
2021/01/14 09:13:28;;;;;;;5.00;3.03;;;2.10;99.90;;;;;;5053790;28;20195;-63
2021/01/14 09:15:57;;;;;;;3.00;2.70;;;2.10;99.90;;;;;;5053839;28;20216;-65
2021/01/14 09:18:31;;;;;;;8.33;3.73;;;2.10;99.90;;;;;;5055676;28;20403;-68
2021/01/14 09:20:57;;;;;;;3.33;2.83;;;2.10;99.90;;;;;;5055800;28;20401;-68
2021/01/14 09:23:25;;;;;;;8.87;3.70;;;2.00;99.90;;;;;;5054247;28;20473;-68
2021/01/14 09:25:55;;;;;;;6.23;2.93;;;2.00;99.90;;;;;;5053775;28;20437;-65
2021/01/14 09:28:27;;;;;;;4.50;2.80;;;2.00;99.90;;;;;;5066058;28;20416;-65
2021/01/14 09:31:23;;;;;;;10.30;4.37;;;2.10;99.90;;;;;;5073445;28;20413;-64
2021/01/14 09:33:50;;;;;;;5.07;3.43;;;2.10;99.90;;;;;;5072102;28;20985;-65
2021/01/14 09:36:17;;;;;;;4.70;3.00;;;2.10;99.90;;;;;;5071899;28;20449;-66
2021/01/14 09:38:47;;;;;;;6.10;3.00;;;2.10;99.90;;;;;;5072833;28;20454;-64
2021/01/14 09:41:28;;;;;;;4.00;2.93;;;2.10;99.90;;;;;;5072719;28;20409;-64
2021/01/14 09:43:55;;;;;;;3.00;2.80;;;2.20;99.90;;;;;;5073116;28;20893;-64
2021/01/14 09:46:22;;;;;;;3.30;2.73;;;2.20;99.90;;;;;;5074419;28;20429;-66
2021/01/14 09:48:50;;;;;;;6.90;3.17;;;2.10;99.90;;;;;;5073409;28;20488;-64
2021/01/14 09:51:16;;;;;;;4.43;3.70;;;2.10;99.90;;;;;;5072744;28;20416;-66
2021/01/14 09:53:47;;;;;;;4.90;3.43;;;2.10;99.90;;;;;;5071703;28;20449;-64
2021/01/14 09:56:40;;;;;;;4.10;3.50;;;2.10;99.90;;;;;;5072311;28;20184;-64
2021/01/14 09:59:12;;;;;;;5.80;3.80;;;2.10;99.90;;;;;;5072439;28;20405;-67
2021/01/14 10:01:50;;;;;;;2.80;2.60;;;2.10;99.90;;;;;;5072505;28;20402;-67
2021/01/14 10:04:18;;;;;;;5.37;2.70;;;2.20;99.90;;;;;;5073089;28;20447;-66
2021/01/14 10:06:48;;;;;;;4.70;2.40;;;2.30;99.90;;;;;;5072677;28;20782;-66
2021/01/14 10:09:15;;;;;;;10.00;5.03;;;2.40;99.90;;;;;;5074433;28;20756;-63
2021/01/14 10:11:42;;;;;;;3.17;1.80;;;2.40;99.90;;;;;;5074373;28;20408;-65
2021/01/14 10:14:16;;;;;;;8.17;3.63;;;2.50;99.90;;;;;;5074476;28;20445;-64
2021/01/14 10:16:42;;;;;;;4.30;3.90;;;2.50;99.90;;;;;;5075459;28;20418;-64
2021/01/14 10:19:09;;;;;;;8.70;3.90;;;2.50;99.90;;;;;;5074917;28;20402;-64
2021/01/14 10:21:37;;;;;;;5.50;4.07;;;2.60;99.90;;;;;;5075869;28;20771;-64
2021/01/14 10:24:03;;;;;;;3.13;2.93;;;2.60;99.90;;;;;;5075747;28;20402;-64
2021/01/14 10:26:30;;;;;;;3.73;2.80;;;2.60;99.90;;;;;;5075721;28;20425;-65
2021/01/14 10:28:56;;;;;;;4.23;3.17;;;2.70;99.90;;;;;;5077620;28;20412;-65
2021/01/14 10:31:32;;;;;;;7.40;3.53;;;2.70;99.90;;;;;;5078118;28;20404;-65
2021/01/14 10:33:59;;;;;;;5.77;3.53;;;2.60;99.90;;;;;;5075780;28;20987;-65
2021/01/14 10:36:24;;;;;;;5.03;3.03;;;2.50;99.90;;;;;;5077407;28;20425;-64
2021/01/14 10:38:50;;;;;;;4.30;3.53;;;2.60;99.90;;;;;;5077909;28;20432;-65
2021/01/14 10:41:22;;;;;;;4.50;2.70;;;2.60;99.90;;;;;;5078209;28;20801;-65
2021/01/14 10:43:47;;;;;;;11.97;2.80;;;2.60;99.90;;;;;;5077080;28;20816;-65
2021/01/14 10:46:23;;;;;;;4.77;2.87;;;2.60;99.90;;;;;;5077057;28;20434;-65
2021/01/14 10:48:49;;;;;;;8.53;3.60;;;2.50;99.90;;;;;;5077607;28;20561;-65
2021/01/14 10:51:31;;;;;;;3.93;2.97;;;2.50;99.90;;;;;;5077294;28;20417;-65
2021/01/14 10:53:57;;;;;;;9.17;3.17;;;2.40;99.90;;;;;;5072792;28;20206;-65
2021/01/14 10:56:24;;;;;;;3.23;2.80;;;2.40;99.90;;;;;;5072935;28;20445;-64
2021/01/14 10:58:55;;;;;;;3.23;2.67;;;2.40;99.90;;;;;;5071813;28;20159;-64
2021/01/14 11:01:21;;;;;;;6.17;3.50;;;2.30;99.90;;;;;;5071716;28;20411;-66
2021/01/14 11:03:48;;;;;;;6.77;3.10;;;2.30;99.90;;;;;;5070202;28;20402;-67
2021/01/14 11:06:36;;;;;;;3.53;2.90;;;2.30;99.90;;;;;;5072532;28;20429;-67
2021/01/14 11:09:10;;;;;;;5.73;3.63;;;2.30;99.90;;;;;;5071589;28;20929;-66
2021/01/14 11:11:35;;;;;;;4.17;3.63;;;2.30;99.90;;;;;;5073136;28;20819;-66
2021/01/14 11:14:01;;;;;;;4.67;3.40;;;2.40;99.90;;;;;;5072003;28;20494;-66
2021/01/14 11:16:27;;;;;;;4.13;2.80;;;2.40;99.90;;;;;;5073733;28;20187;-65
2021/01/14 11:18:54;;;;;;;3.27;2.80;;;2.40;99.90;;;;;;5072024;28;20492;-65
2021/01/14 11:21:30;;;;;;;7.90;4.77;;;2.30;99.90;;;;;;5072288;28;20625;-65
2021/01/14 11:23:57;;;;;;;6.40;2.80;;;2.40;99.90;;;;;;5072508;28;20396;-65
2021/01/14 11:26:23;;;;;;;3.47;3.00;;;2.40;99.90;;;;;;5073071;28;20483;-66
2021/01/14 11:28:49;;;;;;;10.67;4.30;;;2.50;99.90;;;;;;5076549;28;20489;-66
2021/01/14 11:31:17;;;;;;;6.97;4.50;;;2.40;99.90;;;;;;5074322;28;20437;-65
2021/01/14 11:33:42;;;;;;;11.60;3.37;;;2.30;99.90;;;;;;5073514;28;20989;-66
2021/01/14 11:36:13;;;;;;;7.90;4.97;;;2.30;99.90;;;;;;5072196;28;20425;-65
2021/01/14 11:38:41;;;;;;;3.37;2.67;;;2.30;99.90;;;;;;5071246;28;20647;-64
2021/01/14 11:41:07;;;;;;;5.87;2.90;;;2.40;99.90;;;;;;5071501;28;20881;-65
2021/01/14 11:43:33;;;;;;;9.60;3.63;;;2.50;99.90;;;;;;5070106;28;20556;-65
2021/01/14 11:45:59;;;;;;;6.00;4.93;;;2.60;99.90;;;;;;5071178;28;20796;-64
2021/01/14 11:48:24;;;;;;;4.40;4.00;;;2.70;99.90;;;;;;5072031;28;20416;-66
2021/01/14 11:50:50;;;;;;;6.60;6.00;;;2.70;99.90;;;;;;5075488;28;20406;-64
2021/01/14 11:53:16;;;;;;;9.13;4.00;;;2.70;99.90;;;;;;5072288;28;20218;-65
2021/01/14 11:55:41;;;;;;;7.73;4.47;;;2.70;99.90;;;;;;5072258;28;20191;-67
2021/01/14 11:58:07;;;;;;;3.40;3.10;;;2.70;99.90;;;;;;5073676;28;20187;-67
2021/01/14 12:00:32;;;;;;;4.23;3.83;;;2.70;99.90;;;;;;5077758;28;20167;-65
2021/01/14 12:02:58;;;;;;;7.40;4.10;;;2.80;99.90;;;;;;5078291;28;20174;-68
2021/01/14 12:05:24;;;;;;;16.60;5.00;;;2.80;99.90;;;;;;5076135;28;20178;-66
2021/01/14 12:07:49;;;;;;;5.70;3.67;;;2.70;99.60;;;;;;5076534;28;20187;-65
2021/01/14 12:10:15;;;;;;;6.23;4.30;;;2.60;99.60;;;;;;5076509;28;20187;-66
2021/01/14 12:12:40;;;;;;;5.47;4.57;;;2.60;99.90;;;;;;5078629;28;20221;-64
2021/01/14 12:15:07;;;;;;;8.03;5.03;;;2.70;99.90;;;;;;5078525;28;20176;-66
2021/01/14 12:17:33;;;;;;;6.23;4.00;;;2.50;99.60;;;;;;5076764;28;20199;-66
2021/01/14 12:19:59;;;;;;;6.57;5.67;;;2.50;99.80;;;;;;5077400;28;20499;-66
2021/01/14 12:22:25;;;;;;;6.10;4.37;;;2.50;99.90;;;;;;5078153;28;20416;-65
2021/01/14 12:24:51;;;;;;;8.30;6.30;;;2.40;99.90;;;;;;5077038;28;20406;-66
2021/01/14 12:27:16;;;;;;;8.97;7.57;;;2.60;99.90;;;;;;5077293;28;20195;-67
2021/01/14 12:29:42;;;;;;;5.90;4.97;;;2.40;99.90;;;;;;5075195;28;20183;-68
2021/01/14 12:32:08;;;;;;;8.53;5.97;;;2.40;99.90;;;;;;5074884;28;20167;-68
2021/01/14 12:34:34;;;;;;;8.00;5.00;;;2.30;99.90;;;;;;5074489;28;20167;-68
2021/01/14 12:36:59;;;;;;;7.13;4.87;;;2.20;99.90;;;;;;5074527;28;20275;-67
2021/01/14 12:39:25;;;;;;;9.30;5.20;;;2.10;99.90;;;;;;5075226;28;20285;-67
2021/01/14 12:41:51;;;;;;;7.87;5.37;;;1.90;99.90;;;;;;5076038;28;20190;-67
2021/01/14 12:44:17;;;;;;;8.57;5.40;;;1.90;99.90;;;;;;5073724;28;20398;-66
2021/01/14 12:46:46;;;;;;;6.23;4.77;;;1.90;99.90;;;;;;5073989;28;20439;-68
2021/01/14 12:49:12;;;;;;;5.33;4.80;;;2.00;99.90;;;;;;5075024;28;20718;-68
2021/01/14 12:51:39;;;;;;;4.68;4.28;;;1.90;99.90;;;;;;5075489;28;20817;-68
2021/01/14 12:54:05;;;;;;;5.65;5.10;;;1.90;99.90;;;;;;5075960;28;20201;-68
2021/01/14 12:56:31;;;;;;;8.53;5.23;;;1.80;99.90;;;;;;5075110;28;20202;-66
2021/01/14 12:58:57;;;;;;;3.87;3.57;;;1.80;99.90;;;;;;5076156;28;20413;-66
2021/01/14 13:01:36;;;;;;;8.10;4.00;;;1.80;99.90;;;;;;5076879;28;20209;-66
2021/01/14 13:04:04;;;;;;;6.20;3.63;;;1.70;99.90;;;;;;5076559;28;20429;-69
2021/01/14 13:06:31;;;;;;;6.73;4.57;;;1.60;99.90;;;;;;5083728;28;20422;-65